createdAt,value
2022-10-13T00:00:35.225Z,8.73
2022-10-13T00:03:02.850Z,8.79
2022-10-13T00:05:30.763Z,8.74
2022-10-13T00:07:57.950Z,8.71
2022-10-13T00:10:25.688Z,8.70
2022-10-13T00:12:52.471Z,8.68
2022-10-13T00:15:20.026Z,8.67
2022-10-13T00:17:46.617Z,8.65
2022-10-13T00:20:13.391Z,8.62
2022-10-13T00:22:39.737Z,8.66
2022-10-13T00:25:06.730Z,8.61
2022-10-13T00:27:33.300Z,8.68
2022-10-13T00:29:59.729Z,8.71
2022-10-13T00:32:26.222Z,8.79
2022-10-13T00:34:52.614Z,8.90
2022-10-13T00:37:18.965Z,8.91
2022-10-13T00:39:45.370Z,8.96
2022-10-13T00:42:12.973Z,8.99
2022-10-13T00:45:16.905Z,9.07
2022-10-13T00:47:49.968Z,9.04
2022-10-13T00:50:20.019Z,9.08
2022-10-13T00:52:47.971Z,9.06
2022-10-13T00:55:19.467Z,9.07
2022-10-13T00:57:48.394Z,9.04
2022-10-13T01:00:15.101Z,8.95
2022-10-13T01:02:41.814Z,8.89
2022-10-13T01:05:08.661Z,8.90
2022-10-13T01:07:35.824Z,8.88
2022-10-13T01:10:03.172Z,8.88
2022-10-13T01:12:50.185Z,8.84
2022-10-13T01:15:40.090Z,8.77
2022-10-13T01:18:25.049Z,8.77
2022-10-13T01:21:09.764Z,8.78
2022-10-13T01:24:04.002Z,8.74
2022-10-13T01:26:53.283Z,8.70
2022-10-13T01:29:34.878Z,8.69
2022-10-13T01:32:13.330Z,8.69
2022-10-13T01:34:54.874Z,8.62
2022-10-13T01:38:04.718Z,8.60
2022-10-13T01:40:54.458Z,8.56
2022-10-13T01:43:25.016Z,8.50
2022-10-13T01:46:02.206Z,8.45
2022-10-13T01:48:29.441Z,8.45
2022-10-13T01:50:58.612Z,8.39
2022-10-13T01:53:26.084Z,8.44
2022-10-13T01:55:55.339Z,8.44
2022-10-13T01:58:23.785Z,8.43
2022-10-13T02:01:36.289Z,8.43
2022-10-13T02:04:25.897Z,8.44
2022-10-13T02:07:10.567Z,8.45
2022-10-13T02:10:03.746Z,8.40
2022-10-13T02:12:34.779Z,8.36
2022-10-13T02:15:01.401Z,8.42
2022-10-13T02:17:28.684Z,8.44
2022-10-13T02:19:56.010Z,8.43
2022-10-13T02:22:27.467Z,8.44
2022-10-13T02:24:53.966Z,8.48
2022-10-13T02:27:21.723Z,8.44
2022-10-13T02:29:57.554Z,8.44
2022-10-13T02:32:24.443Z,8.44
2022-10-13T02:34:51.627Z,8.44
2022-10-13T02:37:18.510Z,8.46
2022-10-13T02:39:44.865Z,8.51
2022-10-13T02:42:11.451Z,8.49
2022-10-13T02:44:37.842Z,8.52
2022-10-13T02:47:04.196Z,8.51
2022-10-13T02:49:30.481Z,8.53
2022-10-13T02:51:57.222Z,8.52
2022-10-13T02:54:23.513Z,8.49
2022-10-13T02:56:49.884Z,8.48
2022-10-13T02:59:16.507Z,8.48
2022-10-13T03:01:42.859Z,8.47
2022-10-13T03:04:09.538Z,8.47
2022-10-13T03:06:36.020Z,8.35
2022-10-13T03:09:03.153Z,8.38
2022-10-13T03:11:29.580Z,8.39
2022-10-13T03:13:56.115Z,8.35
2022-10-13T03:16:22.757Z,8.38
2022-10-13T03:18:49.133Z,8.39
2022-10-13T03:21:15.460Z,8.38
2022-10-13T03:23:42.118Z,8.37
2022-10-13T03:26:08.669Z,8.40
2022-10-13T03:28:35.252Z,8.41
2022-10-13T03:31:07.929Z,8.40
2022-10-13T03:33:34.498Z,8.37
2022-10-13T03:36:02.964Z,8.35
2022-10-13T03:38:30.994Z,8.37
2022-10-13T03:40:57.363Z,8.35
2022-10-13T03:43:24.391Z,8.34
2022-10-13T03:45:58.200Z,8.32
2022-10-13T03:48:25.313Z,8.38
2022-10-13T03:50:51.946Z,8.36
2022-10-13T03:53:18.363Z,8.41
2022-10-13T03:55:54.634Z,8.38
2022-10-13T03:58:23.242Z,8.39
2022-10-13T04:00:50.247Z,8.42
2022-10-13T04:03:16.893Z,8.39
2022-10-13T04:05:43.914Z,8.39
2022-10-13T04:08:10.548Z,8.32
2022-10-13T04:10:36.976Z,8.32
2022-10-13T04:13:03.640Z,8.27
2022-10-13T04:15:30.058Z,8.28
2022-10-13T04:17:56.616Z,8.34
2022-10-13T04:20:22.903Z,8.32
2022-10-13T04:22:49.198Z,8.32
2022-10-13T04:25:15.745Z,8.31
2022-10-13T04:27:42.152Z,8.32
2022-10-13T04:30:12.429Z,8.29
2022-10-13T04:32:40.026Z,8.23
2022-10-13T04:35:06.909Z,8.22
2022-10-13T04:37:33.223Z,8.22
2022-10-13T04:39:59.711Z,8.20
2022-10-13T04:42:26.062Z,8.18
2022-10-13T04:44:52.363Z,8.22
2022-10-13T04:47:18.742Z,8.23
2022-10-13T04:49:45.070Z,8.30
2022-10-13T04:52:11.494Z,8.37
2022-10-13T04:54:37.789Z,8.37
2022-10-13T04:57:04.440Z,8.39
2022-10-13T04:59:30.883Z,8.39
2022-10-13T05:01:57.194Z,8.39
2022-10-13T05:04:23.502Z,8.32
2022-10-13T05:07:16.027Z,8.41
2022-10-13T05:09:36.627Z,8.41
2022-10-13T05:12:03.514Z,8.37
2022-10-13T05:14:30.151Z,8.35
2022-10-13T05:16:56.696Z,8.42
2022-10-13T05:19:23.434Z,8.38
2022-10-13T05:21:50.336Z,8.48
2022-10-13T05:24:16.656Z,8.39
2022-10-13T05:26:43.346Z,8.44
2022-10-13T05:29:09.757Z,8.44
2022-10-13T05:31:36.327Z,8.49
2022-10-13T05:34:03.117Z,8.51
2022-10-13T05:36:34.586Z,8.46
2022-10-13T05:39:04.868Z,8.46
2022-10-13T05:41:32.877Z,8.46
2022-10-13T05:44:08.464Z,8.44
2022-10-13T05:46:35.468Z,8.43
2022-10-13T05:49:02.831Z,8.38
2022-10-13T05:51:37.968Z,8.39
2022-10-13T05:54:10.442Z,8.46
2022-10-13T05:56:48.086Z,8.44
2022-10-13T05:59:17.961Z,8.49
2022-10-13T06:01:45.492Z,8.48
2022-10-13T06:04:18.283Z,8.48
2022-10-13T06:06:45.076Z,8.46
2022-10-13T06:09:11.480Z,8.43
2022-10-13T06:11:37.922Z,8.51
2022-10-13T06:14:04.379Z,8.46
2022-10-13T06:16:30.990Z,8.43
2022-10-13T06:18:57.510Z,8.45
2022-10-13T06:21:23.806Z,8.45
2022-10-13T06:23:50.138Z,8.47
2022-10-13T06:26:16.665Z,8.45
2022-10-13T06:28:47.576Z,8.54
2022-10-13T06:31:16.577Z,8.55
2022-10-13T06:33:43.037Z,8.54
2022-10-13T06:36:09.654Z,8.57
2022-10-13T06:38:36.110Z,8.61
2022-10-13T06:41:04.057Z,8.59
2022-10-13T06:43:39.719Z,8.65
2022-10-13T06:46:07.595Z,8.66
2022-10-13T06:48:34.434Z,8.68
2022-10-13T06:51:03.401Z,8.67
2022-10-13T06:53:31.156Z,8.69
2022-10-13T06:55:59.236Z,8.71
2022-10-13T06:58:26.330Z,8.73
2022-10-13T07:00:56.768Z,8.67
2022-10-13T07:03:23.639Z,8.70
2022-10-13T07:05:49.970Z,8.67
2022-10-13T07:08:16.756Z,8.84
2022-10-13T07:10:43.755Z,8.89
2022-10-13T07:13:15.654Z,8.96
2022-10-13T07:15:42.145Z,9.03
2022-10-13T07:18:08.841Z,9.01
2022-10-13T07:20:35.247Z,9.06
2022-10-13T07:23:01.945Z,9.07
2022-10-13T07:25:28.820Z,9.13
2022-10-13T07:27:55.144Z,9.20
2022-10-13T07:30:22.240Z,9.23
2022-10-13T07:32:49.161Z,9.25
2022-10-13T07:35:15.632Z,9.37
2022-10-13T07:37:42.064Z,9.48
2022-10-13T07:40:09.172Z,9.52
2022-10-13T07:42:36.711Z,9.48
2022-10-13T07:45:03.590Z,9.55
2022-10-13T07:47:29.932Z,9.60
2022-10-13T07:49:56.364Z,9.69
2022-10-13T07:52:23.067Z,9.69
2022-10-13T07:54:50.669Z,9.78
2022-10-13T07:57:17.305Z,9.81
2022-10-13T07:59:43.766Z,9.84
2022-10-13T08:02:10.108Z,10.00
2022-10-13T08:04:36.500Z,10.10
2022-10-13T08:07:04.991Z,10.12
2022-10-13T08:09:31.510Z,10.20
2022-10-13T08:12:00.877Z,10.22
2022-10-13T08:14:28.314Z,10.32
2022-10-13T08:16:54.818Z,10.29
2022-10-13T08:19:21.520Z,10.44
2022-10-13T08:22:09.101Z,10.40
2022-10-13T08:24:35.426Z,10.50
2022-10-13T08:27:01.888Z,10.56
2022-10-13T08:29:28.451Z,10.63
2022-10-13T08:31:55.517Z,10.71
2022-10-13T08:34:28.190Z,10.83
2022-10-13T08:36:54.915Z,10.93
2022-10-13T08:39:22.381Z,11.17
2022-10-13T08:41:49.696Z,11.26
2022-10-13T08:47:29.942Z,11.53
2022-10-13T08:50:00.979Z,11.69
2022-10-13T08:52:29.781Z,11.71
2022-10-13T08:54:56.432Z,11.93
2022-10-13T08:57:23.426Z,12.03
2022-10-13T08:59:52.092Z,12.13
2022-10-13T09:02:30.514Z,12.46
2022-10-13T09:05:02.161Z,12.54
2022-10-13T09:07:35.053Z,12.62
2022-10-13T09:10:01.400Z,12.82
2022-10-13T09:12:27.922Z,13.09
2022-10-13T09:15:03.889Z,13.42
2022-10-13T09:17:31.898Z,13.45
2022-10-13T09:20:04.150Z,13.56
2022-10-13T09:22:35.199Z,13.84
2022-10-13T09:25:17.252Z,14.35
2022-10-13T09:27:46.845Z,14.47
2022-10-13T09:30:31.451Z,14.54
2022-10-13T09:33:10.029Z,14.63
2022-10-13T09:35:38.534Z,14.71
2022-10-13T09:38:16.205Z,14.61
2022-10-13T09:40:44.613Z,14.68
2022-10-13T09:43:27.790Z,14.86
2022-10-13T09:45:54.468Z,15.00
2022-10-13T09:48:28.317Z,15.16
2022-10-13T09:50:56.747Z,15.16
2022-10-13T09:53:37.459Z,15.03
2022-10-13T09:56:17.473Z,15.35
2022-10-13T09:59:11.256Z,15.35
2022-10-13T10:01:43.529Z,15.37
2022-10-13T10:04:14.578Z,15.21
2022-10-13T10:06:41.266Z,15.80
2022-10-13T10:09:36.323Z,15.74
2022-10-13T10:12:05.173Z,15.88
2022-10-13T10:14:37.476Z,16.42
2022-10-13T10:17:18.703Z,16.48
2022-10-13T10:20:03.329Z,16.41
2022-10-13T10:22:44.988Z,16.24
2022-10-13T10:25:29.160Z,16.10
2022-10-13T10:28:33.024Z,16.20
2022-10-13T10:31:17.951Z,16.83
2022-10-13T10:34:05.968Z,16.83
2022-10-13T10:36:48.394Z,17.05
2022-10-13T10:39:36.593Z,16.68
2022-10-13T10:42:11.611Z,16.70
2022-10-13T10:44:44.272Z,16.88
2022-10-13T10:47:32.702Z,16.66
2022-10-13T10:50:06.551Z,16.58
2022-10-13T10:53:00.002Z,16.91
2022-10-13T10:55:45.731Z,16.73
2022-10-13T10:58:34.538Z,16.63
2022-10-13T11:01:37.011Z,16.82
2022-10-13T11:04:32.841Z,16.66
2022-10-13T11:06:59.561Z,16.35
2022-10-13T11:09:41.369Z,16.30
2022-10-13T11:12:20.220Z,16.21
2022-10-13T11:14:53.832Z,16.15
2022-10-13T11:17:38.034Z,16.37
2022-10-13T11:20:19.887Z,16.37
2022-10-13T11:22:58.677Z,16.34
2022-10-13T11:25:35.685Z,16.56
2022-10-13T11:28:22.274Z,16.41
2022-10-13T11:30:56.321Z,16.45
2022-10-13T11:33:37.955Z,16.37
2022-10-13T11:36:35.737Z,16.25
2022-10-13T11:39:26.746Z,16.55
2022-10-13T11:42:14.407Z,16.30
2022-10-13T11:44:58.040Z,16.48
2022-10-13T11:48:02.425Z,16.94
2022-10-13T11:51:09.524Z,16.71
2022-10-13T11:53:50.647Z,16.56
2022-10-13T11:56:36.319Z,16.73
2022-10-13T11:59:05.605Z,16.80
2022-10-13T12:01:32.179Z,16.61
2022-10-13T12:03:58.629Z,16.82
2022-10-13T12:06:32.434Z,16.90
2022-10-13T12:09:02.482Z,16.60
2022-10-13T12:11:32.818Z,16.41
2022-10-13T12:14:01.068Z,16.54
2022-10-13T12:16:28.808Z,16.39
2022-10-13T12:19:26.219Z,16.46
2022-10-13T12:21:55.856Z,16.39
2022-10-13T12:24:24.278Z,16.63
2022-10-13T12:26:51.542Z,16.42
2022-10-13T12:29:19.566Z,16.26
2022-10-13T12:31:49.029Z,16.49
2022-10-13T12:34:24.158Z,16.54
2022-10-13T12:37:02.521Z,16.32
2022-10-13T12:39:31.878Z,16.30
2022-10-13T12:42:00.674Z,16.27
2022-10-13T12:44:31.919Z,16.30
2022-10-13T12:47:02.006Z,16.48
2022-10-13T12:49:31.263Z,16.51
2022-10-13T12:52:03.336Z,16.44
2022-10-13T12:54:32.492Z,16.31
2022-10-13T12:57:01.979Z,16.29
2022-10-13T12:59:30.652Z,16.58
2022-10-13T13:02:02.465Z,16.37
2022-10-13T13:04:39.050Z,16.19
2022-10-13T13:07:06.456Z,16.16
2022-10-13T13:09:36.446Z,16.17
2022-10-13T13:12:08.680Z,16.10
2022-10-13T13:14:38.934Z,15.99
2022-10-13T13:17:11.622Z,15.92
2022-10-13T13:19:38.957Z,15.84
2022-10-13T13:22:06.566Z,15.77
2022-10-13T13:24:40.201Z,15.74
2022-10-13T13:27:25.557Z,15.74
2022-10-13T13:29:53.900Z,15.72
2022-10-13T13:32:22.361Z,15.81
2022-10-13T13:34:49.514Z,15.90
2022-10-13T13:37:23.901Z,15.89
2022-10-13T13:39:51.030Z,15.78
2022-10-13T13:42:17.327Z,15.74
2022-10-13T13:44:43.978Z,15.69
2022-10-13T13:47:17.168Z,15.78
2022-10-13T13:49:44.137Z,15.73
2022-10-13T13:52:10.654Z,15.52
2022-10-13T13:54:37.194Z,15.49
2022-10-13T13:57:04.169Z,15.37
2022-10-13T13:59:30.486Z,15.41
2022-10-13T14:01:56.964Z,15.35
2022-10-13T14:04:23.358Z,15.34
2022-10-13T14:06:51.477Z,15.34
2022-10-13T14:09:17.936Z,15.29
2022-10-13T14:11:44.303Z,15.29
2022-10-13T14:14:10.862Z,15.33
2022-10-13T14:16:37.693Z,15.30
2022-10-13T14:19:04.280Z,15.34
2022-10-13T14:21:30.675Z,15.52
2022-10-13T14:23:57.056Z,15.67
2022-10-13T14:26:23.440Z,15.54
2022-10-13T14:28:49.767Z,15.38
2022-10-13T14:31:16.185Z,15.29
2022-10-13T14:33:42.810Z,15.23
2022-10-13T14:36:09.461Z,15.16
2022-10-13T14:38:35.778Z,15.19
2022-10-13T14:41:04.214Z,15.13
2022-10-13T14:43:31.233Z,15.13
2022-10-13T14:46:05.533Z,15.15
2022-10-13T14:48:32.877Z,15.21
2022-10-13T14:50:59.344Z,15.16
2022-10-13T14:53:25.735Z,15.13
2022-10-13T14:55:52.840Z,15.37
2022-10-13T14:58:19.163Z,15.45
2022-10-13T15:00:45.552Z,15.25
2022-10-13T15:03:12.019Z,15.16
2022-10-13T15:05:38.481Z,15.29
2022-10-13T15:08:05.121Z,15.32
2022-10-13T15:10:31.551Z,15.15
2022-10-13T15:12:57.850Z,15.19
2022-10-13T15:15:24.144Z,15.11
2022-10-13T15:17:50.762Z,15.06
2022-10-13T15:20:17.125Z,15.12
2022-10-13T15:22:43.621Z,15.07
2022-10-13T15:25:10.027Z,15.04
2022-10-13T15:27:41.503Z,15.05
2022-10-13T15:30:09.082Z,14.99
2022-10-13T15:32:35.715Z,15.10
2022-10-13T15:35:02.023Z,15.14
2022-10-13T15:37:28.426Z,15.09
2022-10-13T15:39:57.554Z,15.00
2022-10-13T15:42:24.103Z,14.98
2022-10-13T15:45:08.611Z,14.90
2022-10-13T15:47:36.211Z,14.96
2022-10-13T15:50:02.971Z,14.99
2022-10-13T15:52:33.821Z,14.93
2022-10-13T15:55:01.887Z,14.88
2022-10-13T15:57:28.289Z,14.89
2022-10-13T15:59:54.670Z,14.91
2022-10-13T16:02:21.544Z,14.95
2022-10-13T16:04:47.976Z,14.93
2022-10-13T16:07:14.429Z,14.79
2022-10-13T16:09:40.977Z,14.79
2022-10-13T16:12:07.536Z,14.81
2022-10-13T16:14:33.961Z,14.85
2022-10-13T16:17:00.284Z,14.79
2022-10-13T16:19:26.579Z,14.73
2022-10-13T16:21:52.986Z,14.73
2022-10-13T16:24:19.340Z,14.68
2022-10-13T16:26:45.712Z,14.52
2022-10-13T16:29:12.234Z,14.57
2022-10-13T16:31:38.577Z,14.51
2022-10-13T16:34:05.166Z,14.52
2022-10-13T16:36:31.614Z,14.51
2022-10-13T16:38:58.826Z,14.50
2022-10-13T16:41:25.125Z,14.45
2022-10-13T16:43:51.506Z,14.47
2022-10-13T16:46:20.163Z,14.54
2022-10-13T16:48:47.723Z,14.53
2022-10-13T16:51:17.514Z,14.50
2022-10-13T16:53:49.251Z,14.53
2022-10-13T16:56:16.066Z,14.48
2022-10-13T16:58:42.365Z,14.44
2022-10-13T17:01:09.838Z,14.45
2022-10-13T17:03:37.282Z,14.43
2022-10-13T17:06:04.196Z,14.45
2022-10-13T17:08:31.015Z,14.40
2022-10-13T17:11:00.177Z,14.32
2022-10-13T17:13:26.751Z,14.33
2022-10-13T17:15:54.767Z,14.27
2022-10-13T17:18:21.308Z,14.17
2022-10-13T17:20:51.988Z,14.23
2022-10-13T17:23:18.287Z,14.49
2022-10-13T17:25:44.580Z,14.37
2022-10-13T17:28:11.041Z,14.24
2022-10-13T17:30:37.333Z,14.18
2022-10-13T17:33:04.642Z,14.08
2022-10-13T17:35:31.865Z,14.06
2022-10-13T17:37:58.181Z,14.01
2022-10-13T17:40:25.851Z,14.01
2022-10-13T17:42:52.237Z,14.06
2022-10-13T17:45:18.617Z,13.97
2022-10-13T17:47:51.292Z,13.95
2022-10-13T17:50:18.470Z,14.00
2022-10-13T17:52:44.856Z,14.08
2022-10-13T17:55:11.170Z,14.07
2022-10-13T17:57:37.553Z,14.05
2022-10-13T18:00:05.327Z,14.29
2022-10-13T18:02:31.872Z,14.17
2022-10-13T18:04:58.149Z,14.16
2022-10-13T18:07:24.775Z,14.16
2022-10-13T18:09:54.106Z,14.07
2022-10-13T18:12:20.834Z,14.03
2022-10-13T18:14:47.257Z,14.25
2022-10-13T18:17:13.680Z,14.07
2022-10-13T18:19:40.543Z,13.99
2022-10-13T18:22:07.024Z,13.96
2022-10-13T18:24:33.323Z,13.86
2022-10-13T18:26:59.632Z,13.82
2022-10-13T18:29:26.032Z,13.78
2022-10-13T18:31:55.018Z,13.75
2022-10-13T18:34:21.386Z,13.73
2022-10-13T18:36:50.225Z,13.76
2022-10-13T18:39:19.026Z,13.69
2022-10-13T18:41:46.444Z,13.67
2022-10-13T18:44:13.278Z,13.65
2022-10-13T18:46:40.577Z,13.62
2022-10-13T18:49:10.529Z,13.60
2022-10-13T18:51:36.941Z,13.59
2022-10-13T18:54:04.819Z,13.86
2022-10-13T18:56:33.220Z,13.88
2022-10-13T18:59:01.693Z,13.93
2022-10-13T19:01:32.435Z,13.91
2022-10-13T19:03:59.476Z,13.79
2022-10-13T19:06:28.354Z,13.88
2022-10-13T19:08:56.620Z,13.81
2022-10-13T19:11:24.294Z,13.72
2022-10-13T19:13:51.897Z,13.68
2022-10-13T19:16:21.054Z,13.64
2022-10-13T19:18:48.579Z,13.53
2022-10-13T19:21:15.286Z,13.53
2022-10-13T19:23:42.020Z,13.54
2022-10-13T19:26:15.157Z,13.51
2022-10-13T19:28:42.453Z,13.49
2022-10-13T19:31:21.269Z,13.43
2022-10-13T19:33:49.749Z,13.41
2022-10-13T19:36:33.542Z,13.38
2022-10-13T19:39:01.091Z,13.37
2022-10-13T19:41:29.669Z,13.27
2022-10-13T19:43:56.405Z,13.29
2022-10-13T19:46:23.946Z,13.24
2022-10-13T19:48:50.548Z,13.23
2022-10-13T19:51:17.788Z,13.19
2022-10-13T19:53:44.635Z,13.19
2022-10-13T19:56:21.056Z,13.14
2022-10-13T19:58:47.493Z,13.10
2022-10-13T20:01:13.821Z,13.08
2022-10-13T20:03:40.172Z,13.10
2022-10-13T20:06:07.007Z,13.10
2022-10-13T20:08:33.312Z,13.10
2022-10-13T20:11:05.066Z,13.03
2022-10-13T20:13:31.364Z,12.98
2022-10-13T20:15:57.714Z,12.99
2022-10-13T20:21:11.327Z,13.03
2022-10-13T20:23:38.437Z,13.05
2022-10-13T20:26:06.977Z,13.01
2022-10-13T20:28:33.763Z,12.98
2022-10-13T20:31:04.584Z,12.98
2022-10-13T20:33:32.254Z,12.98
2022-10-13T20:36:03.435Z,12.96
2022-10-13T20:38:31.182Z,12.98
2022-10-13T20:41:15.551Z,13.01
2022-10-13T20:43:42.273Z,12.86
2022-10-13T20:46:08.967Z,12.93
2022-10-13T20:49:05.075Z,12.88
2022-10-13T20:51:24.741Z,12.89
2022-10-13T20:53:51.288Z,12.91
2022-10-13T20:56:20.731Z,12.90
2022-10-13T20:58:47.504Z,12.83
2022-10-13T21:01:14.395Z,12.89
2022-10-13T21:03:41.057Z,12.90
2022-10-13T21:06:11.018Z,12.88
2022-10-13T21:08:37.539Z,12.83
2022-10-13T21:11:06.240Z,12.88
2022-10-13T21:13:32.613Z,12.82
2022-10-13T21:16:05.983Z,12.91
2022-10-13T21:18:32.374Z,12.90
2022-10-13T21:21:10.566Z,12.88
2022-10-13T21:23:37.837Z,12.88
2022-10-13T21:26:05.953Z,12.90
2022-10-13T21:28:33.312Z,12.90
2022-10-13T21:31:08.848Z,13.01
2022-10-13T21:33:36.155Z,13.02
2022-10-13T21:36:14.125Z,12.96
2022-10-13T21:38:41.742Z,12.91
2022-10-13T21:41:09.729Z,12.91
2022-10-13T21:43:36.589Z,12.92
2022-10-13T21:46:14.810Z,12.93
2022-10-13T21:48:41.374Z,12.89
2022-10-13T21:51:24.568Z,12.84
2022-10-13T21:53:53.747Z,12.81
2022-10-13T21:56:21.474Z,12.79
2022-10-13T21:58:48.045Z,12.76
2022-10-13T22:01:18.257Z,12.72
2022-10-13T22:03:45.590Z,12.73
2022-10-13T22:06:18.777Z,12.74
2022-10-13T22:08:47.859Z,12.76
2022-10-13T22:11:15.492Z,12.76
2022-10-13T22:13:41.862Z,12.73
2022-10-13T22:16:15.203Z,12.72
2022-10-13T22:18:41.924Z,12.73
2022-10-13T22:21:12.037Z,12.69
2022-10-13T22:23:38.432Z,12.60
2022-10-13T22:26:04.904Z,12.60
2022-10-13T22:28:36.817Z,12.51
2022-10-13T22:31:08.778Z,12.53
2022-10-13T22:33:36.732Z,12.56
2022-10-13T22:36:11.926Z,12.51
2022-10-13T22:38:38.386Z,12.49
2022-10-13T22:41:06.318Z,12.46
2022-10-13T22:43:33.724Z,12.50
2022-10-13T22:46:00.141Z,12.48
2022-10-13T22:48:26.753Z,12.43
2022-10-13T22:50:53.125Z,12.44
2022-10-13T22:53:19.963Z,12.43
2022-10-13T22:55:46.320Z,12.47
2022-10-13T22:58:12.970Z,12.45
2022-10-13T23:00:39.338Z,12.44
2022-10-13T23:03:06.220Z,12.46
2022-10-13T23:05:32.965Z,12.44
2022-10-13T23:07:59.408Z,12.43
2022-10-13T23:10:25.806Z,12.43
2022-10-13T23:12:52.221Z,12.43
2022-10-13T23:15:18.612Z,12.39
2022-10-13T23:17:44.930Z,12.36
2022-10-13T23:20:11.632Z,12.33
2022-10-13T23:22:38.074Z,12.35
2022-10-13T23:25:04.760Z,12.35
2022-10-13T23:27:31.097Z,12.28
2022-10-13T23:29:57.568Z,12.26
2022-10-13T23:32:24.162Z,12.32
2022-10-13T23:34:50.653Z,12.33
2022-10-13T23:37:17.348Z,12.29
2022-10-13T23:39:43.654Z,12.27
2022-10-13T23:42:10.242Z,12.27
2022-10-13T23:44:36.886Z,12.28
2022-10-13T23:47:03.258Z,12.29
2022-10-13T23:49:29.709Z,12.28
2022-10-13T23:51:56.005Z,12.28
2022-10-13T23:54:22.449Z,12.14
2022-10-13T23:56:49.063Z,12.29
2022-10-13T23:59:15.350Z,12.28
